sensor_id;sensor_type;location;lat;lon;timestamp;temperature;humidity
26049;DHT22;13822;51.568;5.086;2023-07-31T00:00:34;16.30;99.90
26049;DHT22;13822;51.568;5.086;2023-07-31T00:05:56;16.30;99.90
26049;DHT22;13822;51.568;5.086;2023-07-31T00:23:05;16.30;99.90
26049;DHT22;13822;51.568;5.086;2023-07-31T00:28:32;16.30;99.90
26049;DHT22;13822;51.568;5.086;2023-07-31T00:34:06;16.30;99.90
26049;DHT22;13822;51.568;5.086;2023-07-31T00:39:42;16.30;99.90
26049;DHT22;13822;51.568;5.086;2023-07-31T00:45:18;16.30;99.90
26049;DHT22;13822;51.568;5.086;2023-07-31T00:51:10;16.30;99.90
26049;DHT22;13822;51.568;5.086;2023-07-31T00:56:38;16.30;99.90
26049;DHT22;13822;51.568;5.086;2023-07-31T01:02:17;16.30;99.90
26049;DHT22;13822;51.568;5.086;2023-07-31T01:07:42;16.30;99.90
26049;DHT22;13822;51.568;5.086;2023-07-31T01:13:55;16.30;99.90
26049;DHT22;13822;51.568;5.086;2023-07-31T01:19:47;16.30;99.90
26049;DHT22;13822;51.568;5.086;2023-07-31T01:31:28;16.20;99.90
26049;DHT22;13822;51.568;5.086;2023-07-31T01:36:43;16.30;99.90
26049;DHT22;13822;51.568;5.086;2023-07-31T01:42:07;16.30;99.90
26049;DHT22;13822;51.568;5.086;2023-07-31T01:47:34;16.20;99.90
26049;DHT22;13822;51.568;5.086;2023-07-31T01:53:27;16.20;99.90
26049;DHT22;13822;51.568;5.086;2023-07-31T01:58:29;16.30;99.90
26049;DHT22;13822;51.568;5.086;2023-07-31T02:03:49;16.20;99.90
26049;DHT22;13822;51.568;5.086;2023-07-31T02:09:00;16.20;99.90
26049;DHT22;13822;51.568;5.086;2023-07-31T02:14:07;16.20;99.90
26049;DHT22;13822;51.568;5.086;2023-07-31T02:19:17;16.20;99.90
26049;DHT22;13822;51.568;5.086;2023-07-31T05:04:34;16.10;99.90
26049;DHT22;13822;51.568;5.086;2023-07-31T05:09:36;16.20;99.90
26049;DHT22;13822;51.568;5.086;2023-07-31T05:14:38;16.20;99.90
26049;DHT22;13822;51.568;5.086;2023-07-31T05:19:40;16.20;99.90
26049;DHT22;13822;51.568;5.086;2023-07-31T05:24:42;16.20;99.90
26049;DHT22;13822;51.568;5.086;2023-07-31T05:29:44;16.20;99.90
26049;DHT22;13822;51.568;5.086;2023-07-31T05:34:46;16.20;99.90
26049;DHT22;13822;51.568;5.086;2023-07-31T05:39:48;16.20;99.90
26049;DHT22;13822;51.568;5.086;2023-07-31T05:44:50;16.20;99.90
26049;DHT22;13822;51.568;5.086;2023-07-31T05:49:52;16.20;99.90
26049;DHT22;13822;51.568;5.086;2023-07-31T05:54:54;16.20;99.90
26049;DHT22;13822;51.568;5.086;2023-07-31T05:59:58;16.20;99.90
26049;DHT22;13822;51.568;5.086;2023-07-31T06:05:00;16.10;99.90
26049;DHT22;13822;51.568;5.086;2023-07-31T06:10:03;16.20;99.90
26049;DHT22;13822;51.568;5.086;2023-07-31T06:15:07;16.20;99.90
26049;DHT22;13822;51.568;5.086;2023-07-31T06:20:09;16.20;99.90
26049;DHT22;13822;51.568;5.086;2023-07-31T06:25:11;16.20;99.90
26049;DHT22;13822;51.568;5.086;2023-07-31T06:30:16;16.20;99.90
26049;DHT22;13822;51.568;5.086;2023-07-31T06:35:18;16.20;99.90
26049;DHT22;13822;51.568;5.086;2023-07-31T06:40:20;16.20;99.90
26049;DHT22;13822;51.568;5.086;2023-07-31T06:45:23;16.20;99.90
26049;DHT22;13822;51.568;5.086;2023-07-31T06:50:25;16.20;99.90
26049;DHT22;13822;51.568;5.086;2023-07-31T06:55:27;16.30;99.90
26049;DHT22;13822;51.568;5.086;2023-07-31T07:00:29;16.30;99.90
26049;DHT22;13822;51.568;5.086;2023-07-31T07:05:34;16.30;99.90
26049;DHT22;13822;51.568;5.086;2023-07-31T07:10:36;16.30;99.90
26049;DHT22;13822;51.568;5.086;2023-07-31T07:15:47;16.40;99.90
26049;DHT22;13822;51.568;5.086;2023-07-31T07:20:58;16.40;99.90
26049;DHT22;13822;51.568;5.086;2023-07-31T07:26:00;16.40;99.90
26049;DHT22;13822;51.568;5.086;2023-07-31T07:31:06;16.40;99.90
26049;DHT22;13822;51.568;5.086;2023-07-31T07:36:15;16.40;99.90
26049;DHT22;13822;51.568;5.086;2023-07-31T07:41:27;16.40;99.90
26049;DHT22;13822;51.568;5.086;2023-07-31T07:46:29;16.40;99.90
26049;DHT22;13822;51.568;5.086;2023-07-31T07:51:32;16.50;99.90
26049;DHT22;13822;51.568;5.086;2023-07-31T07:56:34;16.40;99.90
26049;DHT22;13822;51.568;5.086;2023-07-31T08:01:38;16.50;99.90
26049;DHT22;13822;51.568;5.086;2023-07-31T08:06:40;16.50;99.90
26049;DHT22;13822;51.568;5.086;2023-07-31T08:11:43;16.40;99.90
26049;DHT22;13822;51.568;5.086;2023-07-31T08:16:45;16.40;99.90
26049;DHT22;13822;51.568;5.086;2023-07-31T08:21:47;16.50;99.90
26049;DHT22;13822;51.568;5.086;2023-07-31T08:26:49;16.40;99.90
26049;DHT22;13822;51.568;5.086;2023-07-31T08:31:51;16.50;99.90
26049;DHT22;13822;51.568;5.086;2023-07-31T08:36:53;16.50;99.90
26049;DHT22;13822;51.568;5.086;2023-07-31T08:41:58;16.50;99.90
26049;DHT22;13822;51.568;5.086;2023-07-31T08:47:01;16.60;99.90
26049;DHT22;13822;51.568;5.086;2023-07-31T08:52:03;16.60;99.90
26049;DHT22;13822;51.568;5.086;2023-07-31T08:57:06;16.60;99.90
26049;DHT22;13822;51.568;5.086;2023-07-31T09:02:08;16.70;99.90
26049;DHT22;13822;51.568;5.086;2023-07-31T09:07:10;16.80;99.90
26049;DHT22;13822;51.568;5.086;2023-07-31T09:12:14;16.80;99.90
26049;DHT22;13822;51.568;5.086;2023-07-31T09:17:28;16.90;99.90
26049;DHT22;13822;51.568;5.086;2023-07-31T09:22:34;16.90;99.90
26049;DHT22;13822;51.568;5.086;2023-07-31T09:27:45;17.00;99.90
26049;DHT22;13822;51.568;5.086;2023-07-31T09:32:50;17.10;99.90
26049;DHT22;13822;51.568;5.086;2023-07-31T09:37:55;17.20;99.90
26049;DHT22;13822;51.568;5.086;2023-07-31T09:43:01;17.30;99.90
26049;DHT22;13822;51.568;5.086;2023-07-31T09:48:15;17.30;99.90
26049;DHT22;13822;51.568;5.086;2023-07-31T09:53:18;17.40;99.90
26049;DHT22;13822;51.568;5.086;2023-07-31T09:58:20;17.40;99.90
26049;DHT22;13822;51.568;5.086;2023-07-31T10:03:22;17.40;99.90
26049;DHT22;13822;51.568;5.086;2023-07-31T10:08:28;17.50;99.90
26049;DHT22;13822;51.568;5.086;2023-07-31T10:13:33;17.60;99.90
26049;DHT22;13822;51.568;5.086;2023-07-31T10:18:35;17.70;99.90
26049;DHT22;13822;51.568;5.086;2023-07-31T10:23:38;17.80;99.90
26049;DHT22;13822;51.568;5.086;2023-07-31T10:28:40;17.90;99.90
26049;DHT22;13822;51.568;5.086;2023-07-31T10:33:43;18.00;99.90
26049;DHT22;13822;51.568;5.086;2023-07-31T10:38:45;18.00;99.90
26049;DHT22;13822;51.568;5.086;2023-07-31T10:43:54;18.00;99.90
26049;DHT22;13822;51.568;5.086;2023-07-31T10:48:57;18.10;99.90
26049;DHT22;13822;51.568;5.086;2023-07-31T10:54:10;18.20;99.90
26049;DHT22;13822;51.568;5.086;2023-07-31T10:59:13;18.20;99.90
26049;DHT22;13822;51.568;5.086;2023-07-31T11:04:15;18.30;99.90
26049;DHT22;13822;51.568;5.086;2023-07-31T11:09:24;18.40;99.90
26049;DHT22;13822;51.568;5.086;2023-07-31T11:14:29;18.50;99.90
26049;DHT22;13822;51.568;5.086;2023-07-31T11:19:31;18.60;99.90
26049;DHT22;13822;51.568;5.086;2023-07-31T11:24:33;18.50;99.90
26049;DHT22;13822;51.568;5.086;2023-07-31T11:29:35;18.50;99.90
26049;DHT22;13822;51.568;5.086;2023-07-31T11:34:53;18.50;99.90
26049;DHT22;13822;51.568;5.086;2023-07-31T11:40:02;18.40;99.90
26049;DHT22;13822;51.568;5.086;2023-07-31T11:45:05;18.30;99.90
26049;DHT22;13822;51.568;5.086;2023-07-31T11:50:10;18.20;99.90
26049;DHT22;13822;51.568;5.086;2023-07-31T11:55:12;18.10;99.90
26049;DHT22;13822;51.568;5.086;2023-07-31T12:00:16;18.10;99.90
26049;DHT22;13822;51.568;5.086;2023-07-31T12:05:19;18.00;99.90
26049;DHT22;13822;51.568;5.086;2023-07-31T12:10:31;18.10;99.90
26049;DHT22;13822;51.568;5.086;2023-07-31T12:15:37;18.10;99.90
26049;DHT22;13822;51.568;5.086;2023-07-31T12:20:44;18.10;99.90
26049;DHT22;13822;51.568;5.086;2023-07-31T12:25:48;18.20;99.90
26049;DHT22;13822;51.568;5.086;2023-07-31T12:31:02;18.10;99.90
26049;DHT22;13822;51.568;5.086;2023-07-31T12:36:06;18.20;99.90
26049;DHT22;13822;51.568;5.086;2023-07-31T12:41:10;18.20;99.90
26049;DHT22;13822;51.568;5.086;2023-07-31T12:46:12;18.20;99.90
26049;DHT22;13822;51.568;5.086;2023-07-31T12:51:15;18.30;99.90
26049;DHT22;13822;51.568;5.086;2023-07-31T12:56:17;18.30;99.90
26049;DHT22;13822;51.568;5.086;2023-07-31T13:01:19;18.40;99.90
26049;DHT22;13822;51.568;5.086;2023-07-31T13:06:21;18.50;99.90
26049;DHT22;13822;51.568;5.086;2023-07-31T13:11:25;18.40;99.90
26049;DHT22;13822;51.568;5.086;2023-07-31T13:16:27;18.50;99.90
26049;DHT22;13822;51.568;5.086;2023-07-31T13:21:29;18.50;99.90
26049;DHT22;13822;51.568;5.086;2023-07-31T13:26:31;18.50;99.90
26049;DHT22;13822;51.568;5.086;2023-07-31T13:31:33;18.60;99.90
26049;DHT22;13822;51.568;5.086;2023-07-31T13:36:36;18.60;99.90
26049;DHT22;13822;51.568;5.086;2023-07-31T13:41:39;18.60;99.90
26049;DHT22;13822;51.568;5.086;2023-07-31T13:46:41;18.60;99.90
26049;DHT22;13822;51.568;5.086;2023-07-31T13:51:44;18.50;99.90
26049;DHT22;13822;51.568;5.086;2023-07-31T13:56:46;18.50;99.90
26049;DHT22;13822;51.568;5.086;2023-07-31T14:01:47;18.50;99.90
26049;DHT22;13822;51.568;5.086;2023-07-31T14:06:49;18.50;99.90
26049;DHT22;13822;51.568;5.086;2023-07-31T14:11:52;18.40;99.90
26049;DHT22;13822;51.568;5.086;2023-07-31T14:16:53;18.40;99.90
26049;DHT22;13822;51.568;5.086;2023-07-31T14:21:57;18.40;99.90
26049;DHT22;13822;51.568;5.086;2023-07-31T14:27:11;18.50;99.90
26049;DHT22;13822;51.568;5.086;2023-07-31T14:32:13;18.50;99.90
26049;DHT22;13822;51.568;5.086;2023-07-31T14:37:15;18.40;99.90
26049;DHT22;13822;51.568;5.086;2023-07-31T14:42:17;18.40;99.90
26049;DHT22;13822;51.568;5.086;2023-07-31T14:47:20;18.40;99.90
26049;DHT22;13822;51.568;5.086;2023-07-31T14:52:23;18.40;99.90
26049;DHT22;13822;51.568;5.086;2023-07-31T14:57:25;18.30;99.90
26049;DHT22;13822;51.568;5.086;2023-07-31T15:02:28;18.40;99.90
26049;DHT22;13822;51.568;5.086;2023-07-31T15:07:30;18.30;99.90
26049;DHT22;13822;51.568;5.086;2023-07-31T15:12:32;18.30;99.90
26049;DHT22;13822;51.568;5.086;2023-07-31T15:17:34;18.30;99.90
26049;DHT22;13822;51.568;5.086;2023-07-31T15:22:36;18.30;99.90
26049;DHT22;13822;51.568;5.086;2023-07-31T15:27:37;18.10;99.90
26049;DHT22;13822;51.568;5.086;2023-07-31T15:32:39;18.00;99.90
26049;DHT22;13822;51.568;5.086;2023-07-31T15:37:41;17.90;99.90
26049;DHT22;13822;51.568;5.086;2023-07-31T15:42:43;17.90;99.90
26049;DHT22;13822;51.568;5.086;2023-07-31T15:47:45;17.90;99.90
26049;DHT22;13822;51.568;5.086;2023-07-31T15:52:47;17.70;99.90
26049;DHT22;13822;51.568;5.086;2023-07-31T15:57:49;17.80;99.90
26049;DHT22;13822;51.568;5.086;2023-07-31T16:02:51;17.70;99.90
26049;DHT22;13822;51.568;5.086;2023-07-31T16:07:53;17.70;99.90
26049;DHT22;13822;51.568;5.086;2023-07-31T16:12:55;17.70;99.90
26049;DHT22;13822;51.568;5.086;2023-07-31T16:17:57;17.70;99.90
26049;DHT22;13822;51.568;5.086;2023-07-31T16:22:59;17.60;99.90
26049;DHT22;13822;51.568;5.086;2023-07-31T16:28:01;17.70;99.90
26049;DHT22;13822;51.568;5.086;2023-07-31T16:33:03;17.70;99.90
26049;DHT22;13822;51.568;5.086;2023-07-31T16:38:05;17.70;99.90
26049;DHT22;13822;51.568;5.086;2023-07-31T16:43:07;17.60;99.90
26049;DHT22;13822;51.568;5.086;2023-07-31T16:48:09;17.60;99.90
26049;DHT22;13822;51.568;5.086;2023-07-31T16:53:12;17.60;99.90
26049;DHT22;13822;51.568;5.086;2023-07-31T16:58:14;17.60;99.90
26049;DHT22;13822;51.568;5.086;2023-07-31T17:03:16;17.60;99.90
26049;DHT22;13822;51.568;5.086;2023-07-31T17:08:18;17.60;99.90
26049;DHT22;13822;51.568;5.086;2023-07-31T17:13:20;17.60;99.90
26049;DHT22;13822;51.568;5.086;2023-07-31T17:18:22;17.60;99.90
26049;DHT22;13822;51.568;5.086;2023-07-31T17:23:24;17.50;99.90
26049;DHT22;13822;51.568;5.086;2023-07-31T17:28:26;17.50;99.90
26049;DHT22;13822;51.568;5.086;2023-07-31T17:33:28;17.50;99.90
26049;DHT22;13822;51.568;5.086;2023-07-31T17:38:30;17.50;99.90
26049;DHT22;13822;51.568;5.086;2023-07-31T17:43:32;17.50;99.90
26049;DHT22;13822;51.568;5.086;2023-07-31T17:48:34;17.50;99.90
26049;DHT22;13822;51.568;5.086;2023-07-31T17:53:36;17.50;99.90
26049;DHT22;13822;51.568;5.086;2023-07-31T17:58:38;17.50;99.90
26049;DHT22;13822;51.568;5.086;2023-07-31T18:03:40;17.50;99.90
26049;DHT22;13822;51.568;5.086;2023-07-31T18:08:43;17.50;99.90
26049;DHT22;13822;51.568;5.086;2023-07-31T18:13:45;17.40;99.90
26049;DHT22;13822;51.568;5.086;2023-07-31T18:18:49;17.30;99.90
26049;DHT22;13822;51.568;5.086;2023-07-31T18:23:51;17.20;99.90
26049;DHT22;13822;51.568;5.086;2023-07-31T18:28:57;17.20;99.90
26049;DHT22;13822;51.568;5.086;2023-07-31T18:33:59;17.10;99.90
26049;DHT22;13822;51.568;5.086;2023-07-31T18:39:01;17.00;99.90
26049;DHT22;13822;51.568;5.086;2023-07-31T18:44:03;16.90;99.90
26049;DHT22;13822;51.568;5.086;2023-07-31T18:49:05;16.70;99.90
26049;DHT22;13822;51.568;5.086;2023-07-31T18:54:07;16.70;99.90
26049;DHT22;13822;51.568;5.086;2023-07-31T18:59:09;16.60;99.90
26049;DHT22;13822;51.568;5.086;2023-07-31T19:04:12;16.60;99.90
26049;DHT22;13822;51.568;5.086;2023-07-31T19:09:14;16.50;99.90
26049;DHT22;13822;51.568;5.086;2023-07-31T19:14:16;16.50;99.90
26049;DHT22;13822;51.568;5.086;2023-07-31T19:19:18;16.40;99.90
26049;DHT22;13822;51.568;5.086;2023-07-31T19:24:20;16.40;99.90
26049;DHT22;13822;51.568;5.086;2023-07-31T19:29:22;16.40;99.90
26049;DHT22;13822;51.568;5.086;2023-07-31T19:34:24;16.40;99.90
26049;DHT22;13822;51.568;5.086;2023-07-31T19:39:27;16.40;99.90
26049;DHT22;13822;51.568;5.086;2023-07-31T19:44:28;16.40;99.90
26049;DHT22;13822;51.568;5.086;2023-07-31T19:49:30;16.40;99.90
26049;DHT22;13822;51.568;5.086;2023-07-31T19:54:32;16.40;99.90
26049;DHT22;13822;51.568;5.086;2023-07-31T19:59:40;16.50;99.90
26049;DHT22;13822;51.568;5.086;2023-07-31T20:18:34;16.60;99.90
26049;DHT22;13822;51.568;5.086;2023-07-31T20:31:27;16.70;99.90
